sensor_id;sensor_type;location;lat;lon;timestamp;P1;durP1;ratioP1;P2;durP2;ratioP2
25854;SDS011;13680;49.936;11.344;2023-01-06T00:00:26;24.95;;;4.32;;
25854;SDS011;13680;49.936;11.344;2023-01-06T00:02:51;26.90;;;4.95;;
25854;SDS011;13680;49.936;11.344;2023-01-06T00:05:17;31.25;;;5.38;;
25854;SDS011;13680;49.936;11.344;2023-01-06T00:07:43;26.10;;;4.13;;
25854;SDS011;13680;49.936;11.344;2023-01-06T00:10:08;19.33;;;4.75;;
25854;SDS011;13680;49.936;11.344;2023-01-06T00:12:35;28.20;;;5.22;;
25854;SDS011;13680;49.936;11.344;2023-01-06T00:15:00;28.27;;;4.80;;
25854;SDS011;13680;49.936;11.344;2023-01-06T00:17:25;30.75;;;5.25;;
25854;SDS011;13680;49.936;11.344;2023-01-06T00:19:51;25.38;;;5.30;;
25854;SDS011;13680;49.936;11.344;2023-01-06T00:22:17;18.73;;;4.45;;
25854;SDS011;13680;49.936;11.344;2023-01-06T00:24:42;24.30;;;5.40;;
25854;SDS011;13680;49.936;11.344;2023-01-06T00:27:07;28.25;;;5.57;;
25854;SDS011;13680;49.936;11.344;2023-01-06T00:29:33;18.33;;;5.15;;
25854;SDS011;13680;49.936;11.344;2023-01-06T00:31:59;22.88;;;5.53;;
25854;SDS011;13680;49.936;11.344;2023-01-06T00:34:25;25.55;;;5.30;;
25854;SDS011;13680;49.936;11.344;2023-01-06T00:36:50;29.67;;;4.95;;
25854;SDS011;13680;49.936;11.344;2023-01-06T00:39:16;28.67;;;4.82;;
25854;SDS011;13680;49.936;11.344;2023-01-06T00:41:41;30.98;;;5.38;;
25854;SDS011;13680;49.936;11.344;2023-01-06T00:44:25;22.30;;;5.40;;
25854;SDS011;13680;49.936;11.344;2023-01-06T00:46:50;17.02;;;4.70;;
25854;SDS011;13680;49.936;11.344;2023-01-06T00:49:15;22.45;;;6.03;;
25854;SDS011;13680;49.936;11.344;2023-01-06T00:51:41;19.67;;;5.05;;
25854;SDS011;13680;49.936;11.344;2023-01-06T00:54:09;18.80;;;4.63;;
25854;SDS011;13680;49.936;11.344;2023-01-06T00:56:36;16.70;;;4.78;;
25854;SDS011;13680;49.936;11.344;2023-01-06T00:59:03;18.67;;;5.35;;
25854;SDS011;13680;49.936;11.344;2023-01-06T01:01:30;14.57;;;4.47;;
25854;SDS011;13680;49.936;11.344;2023-01-06T01:03:55;18.15;;;4.68;;
25854;SDS011;13680;49.936;11.344;2023-01-06T01:06:21;17.20;;;5.00;;
25854;SDS011;13680;49.936;11.344;2023-01-06T01:08:46;14.90;;;5.00;;
25854;SDS011;13680;49.936;11.344;2023-01-06T01:11:12;19.45;;;5.45;;
25854;SDS011;13680;49.936;11.344;2023-01-06T01:14:00;19.77;;;6.10;;
25854;SDS011;13680;49.936;11.344;2023-01-06T01:16:25;20.25;;;6.10;;
25854;SDS011;13680;49.936;11.344;2023-01-06T01:18:51;22.45;;;5.47;;
25854;SDS011;13680;49.936;11.344;2023-01-06T01:21:16;22.20;;;5.85;;
25854;SDS011;13680;49.936;11.344;2023-01-06T01:23:41;12.75;;;6.03;;
25854;SDS011;13680;49.936;11.344;2023-01-06T01:26:07;25.13;;;5.68;;
25854;SDS011;13680;49.936;11.344;2023-01-06T01:28:32;49.35;;;7.53;;
25854;SDS011;13680;49.936;11.344;2023-01-06T01:30:58;27.27;;;6.95;;
25854;SDS011;13680;49.936;11.344;2023-01-06T01:33:24;23.80;;;7.18;;
25854;SDS011;13680;49.936;11.344;2023-01-06T01:35:49;20.08;;;6.57;;
25854;SDS011;13680;49.936;11.344;2023-01-06T01:38:15;20.70;;;6.50;;
25854;SDS011;13680;49.936;11.344;2023-01-06T01:40:45;25.63;;;7.07;;
25854;SDS011;13680;49.936;11.344;2023-01-06T01:43:12;46.63;;;7.78;;
25854;SDS011;13680;49.936;11.344;2023-01-06T01:45:38;32.25;;;7.05;;
25854;SDS011;13680;49.936;11.344;2023-01-06T01:48:06;30.63;;;8.23;;
25854;SDS011;13680;49.936;11.344;2023-01-06T01:50:50;24.27;;;6.93;;
25854;SDS011;13680;49.936;11.344;2023-01-06T01:53:24;21.60;;;6.95;;
25854;SDS011;13680;49.936;11.344;2023-01-06T01:55:54;18.88;;;7.07;;
25854;SDS011;13680;49.936;11.344;2023-01-06T02:01:30;36.83;;;7.85;;
25854;SDS011;13680;49.936;11.344;2023-01-06T02:03:56;20.92;;;6.60;;
25854;SDS011;13680;49.936;11.344;2023-01-06T02:06:22;17.17;;;6.72;;
25854;SDS011;13680;49.936;11.344;2023-01-06T02:11:36;16.38;;;6.70;;
25854;SDS011;13680;49.936;11.344;2023-01-06T02:14:16;13.52;;;6.97;;
25854;SDS011;13680;49.936;11.344;2023-01-06T02:22:50;14.98;;;7.32;;
25854;SDS011;13680;49.936;11.344;2023-01-06T02:28:28;15.02;;;6.75;;
25854;SDS011;13680;49.936;11.344;2023-01-06T02:39:37;18.50;;;7.40;;
25854;SDS011;13680;49.936;11.344;2023-01-06T02:42:32;12.73;;;6.90;;
25854;SDS011;13680;49.936;11.344;2023-01-06T02:45:07;16.42;;;6.20;;
25854;SDS011;13680;49.936;11.344;2023-01-06T02:47:45;20.55;;;7.97;;
25854;SDS011;13680;49.936;11.344;2023-01-06T02:52:57;12.13;;;7.00;;
25854;SDS011;13680;49.936;11.344;2023-01-06T02:58:24;11.00;;;5.70;;
25854;SDS011;13680;49.936;11.344;2023-01-06T03:01:10;9.82;;;5.95;;
25854;SDS011;13680;49.936;11.344;2023-01-06T03:03:41;9.98;;;6.00;;
25854;SDS011;13680;49.936;11.344;2023-01-06T03:06:14;13.55;;;5.57;;
25854;SDS011;13680;49.936;11.344;2023-01-06T03:08:42;8.43;;;5.35;;
25854;SDS011;13680;49.936;11.344;2023-01-06T03:11:11;11.45;;;5.40;;
25854;SDS011;13680;49.936;11.344;2023-01-06T03:16:05;10.18;;;5.53;;
25854;SDS011;13680;49.936;11.344;2023-01-06T03:18:31;8.73;;;5.03;;
25854;SDS011;13680;49.936;11.344;2023-01-06T03:20:58;10.43;;;5.40;;
25854;SDS011;13680;49.936;11.344;2023-01-06T03:23:26;7.60;;;5.55;;
25854;SDS011;13680;49.936;11.344;2023-01-06T03:25:52;11.90;;;5.93;;
25854;SDS011;13680;49.936;11.344;2023-01-06T03:28:17;12.40;;;5.85;;
25854;SDS011;13680;49.936;11.344;2023-01-06T03:30:53;12.57;;;6.15;;
25854;SDS011;13680;49.936;11.344;2023-01-06T03:33:30;15.18;;;6.57;;
25854;SDS011;13680;49.936;11.344;2023-01-06T03:38:48;12.35;;;6.68;;
25854;SDS011;13680;49.936;11.344;2023-01-06T03:44:26;9.15;;;6.22;;
25854;SDS011;13680;49.936;11.344;2023-01-06T03:46:59;11.30;;;6.18;;
25854;SDS011;13680;49.936;11.344;2023-01-06T03:49:38;20.38;;;6.18;;
25854;SDS011;13680;49.936;11.344;2023-01-06T03:52:16;7.72;;;5.47;;
25854;SDS011;13680;49.936;11.344;2023-01-06T03:54:53;14.27;;;6.57;;
25854;SDS011;13680;49.936;11.344;2023-01-06T03:57:30;13.95;;;6.18;;
25854;SDS011;13680;49.936;11.344;2023-01-06T04:00:04;10.65;;;5.78;;
25854;SDS011;13680;49.936;11.344;2023-01-06T04:02:34;10.48;;;6.20;;
25854;SDS011;13680;49.936;11.344;2023-01-06T04:05:12;12.05;;;5.80;;
25854;SDS011;13680;49.936;11.344;2023-01-06T04:07:42;15.82;;;6.47;;
25854;SDS011;13680;49.936;11.344;2023-01-06T04:10:08;14.38;;;6.75;;
25854;SDS011;13680;49.936;11.344;2023-01-06T04:12:34;11.23;;;6.53;;
25854;SDS011;13680;49.936;11.344;2023-01-06T04:15:13;16.30;;;7.55;;
25854;SDS011;13680;49.936;11.344;2023-01-06T04:17:41;14.45;;;7.35;;
25854;SDS011;13680;49.936;11.344;2023-01-06T04:20:08;14.77;;;7.50;;
25854;SDS011;13680;49.936;11.344;2023-01-06T04:22:36;16.90;;;6.95;;
25854;SDS011;13680;49.936;11.344;2023-01-06T04:25:02;14.45;;;8.18;;
25854;SDS011;13680;49.936;11.344;2023-01-06T04:27:28;13.52;;;7.45;;
25854;SDS011;13680;49.936;11.344;2023-01-06T04:29:53;14.32;;;7.43;;
25854;SDS011;13680;49.936;11.344;2023-01-06T04:32:19;14.80;;;6.93;;
25854;SDS011;13680;49.936;11.344;2023-01-06T04:34:44;11.70;;;7.00;;
25854;SDS011;13680;49.936;11.344;2023-01-06T04:37:10;13.73;;;7.32;;
25854;SDS011;13680;49.936;11.344;2023-01-06T04:39:35;13.45;;;7.47;;
25854;SDS011;13680;49.936;11.344;2023-01-06T04:42:00;11.77;;;7.13;;
25854;SDS011;13680;49.936;11.344;2023-01-06T04:44:26;9.90;;;7.00;;
25854;SDS011;13680;49.936;11.344;2023-01-06T04:46:51;11.88;;;6.32;;
25854;SDS011;13680;49.936;11.344;2023-01-06T04:49:16;13.00;;;6.47;;
25854;SDS011;13680;49.936;11.344;2023-01-06T04:51:42;13.02;;;6.03;;
25854;SDS011;13680;49.936;11.344;2023-01-06T04:54:07;12.23;;;6.22;;
25854;SDS011;13680;49.936;11.344;2023-01-06T04:56:32;10.00;;;5.85;;
25854;SDS011;13680;49.936;11.344;2023-01-06T04:58:58;8.80;;;6.28;;
25854;SDS011;13680;49.936;11.344;2023-01-06T05:01:24;9.88;;;5.95;;
25854;SDS011;13680;49.936;11.344;2023-01-06T05:03:50;11.65;;;5.85;;
25854;SDS011;13680;49.936;11.344;2023-01-06T05:06:16;9.77;;;5.65;;
25854;SDS011;13680;49.936;11.344;2023-01-06T05:08:42;11.65;;;6.00;;
25854;SDS011;13680;49.936;11.344;2023-01-06T05:11:13;9.80;;;5.40;;
25854;SDS011;13680;49.936;11.344;2023-01-06T05:13:45;10.20;;;5.40;;
25854;SDS011;13680;49.936;11.344;2023-01-06T05:16:13;9.48;;;5.50;;
25854;SDS011;13680;49.936;11.344;2023-01-06T05:18:42;9.35;;;4.95;;
25854;SDS011;13680;49.936;11.344;2023-01-06T05:21:07;9.57;;;5.43;;
25854;SDS011;13680;49.936;11.344;2023-01-06T05:23:34;8.50;;;5.00;;
25854;SDS011;13680;49.936;11.344;2023-01-06T05:26:00;7.80;;;5.05;;
25854;SDS011;13680;49.936;11.344;2023-01-06T05:28:27;6.90;;;4.68;;
25854;SDS011;13680;49.936;11.344;2023-01-06T05:30:57;7.65;;;4.60;;
25854;SDS011;13680;49.936;11.344;2023-01-06T05:33:29;7.57;;;4.50;;
25854;SDS011;13680;49.936;11.344;2023-01-06T05:35:56;5.10;;;4.30;;
25854;SDS011;13680;49.936;11.344;2023-01-06T05:38:26;8.00;;;4.90;;
25854;SDS011;13680;49.936;11.344;2023-01-06T05:40:51;5.63;;;4.60;;
25854;SDS011;13680;49.936;11.344;2023-01-06T05:43:17;9.45;;;5.30;;
25854;SDS011;13680;49.936;11.344;2023-01-06T05:45:43;5.65;;;4.25;;
25854;SDS011;13680;49.936;11.344;2023-01-06T05:48:08;6.32;;;5.13;;
25854;SDS011;13680;49.936;11.344;2023-01-06T05:50:34;7.10;;;4.85;;
25854;SDS011;13680;49.936;11.344;2023-01-06T05:52:59;9.93;;;5.25;;
25854;SDS011;13680;49.936;11.344;2023-01-06T05:55:25;6.88;;;4.60;;
25854;SDS011;13680;49.936;11.344;2023-01-06T05:57:50;7.13;;;4.55;;
25854;SDS011;13680;49.936;11.344;2023-01-06T06:00:15;8.43;;;5.05;;
25854;SDS011;13680;49.936;11.344;2023-01-06T06:02:41;7.95;;;4.93;;
25854;SDS011;13680;49.936;11.344;2023-01-06T06:05:07;8.45;;;6.43;;
25854;SDS011;13680;49.936;11.344;2023-01-06T06:07:33;10.45;;;6.55;;
25854;SDS011;13680;49.936;11.344;2023-01-06T06:09:58;8.35;;;5.90;;
25854;SDS011;13680;49.936;11.344;2023-01-06T06:12:23;12.07;;;6.43;;
25854;SDS011;13680;49.936;11.344;2023-01-06T06:14:48;8.98;;;5.97;;
25854;SDS011;13680;49.936;11.344;2023-01-06T06:17:14;8.68;;;5.57;;
25854;SDS011;13680;49.936;11.344;2023-01-06T06:19:39;10.13;;;6.47;;
25854;SDS011;13680;49.936;11.344;2023-01-06T06:22:05;9.98;;;7.50;;
25854;SDS011;13680;49.936;11.344;2023-01-06T06:24:30;10.27;;;6.43;;
25854;SDS011;13680;49.936;11.344;2023-01-06T06:26:55;11.95;;;6.38;;
25854;SDS011;13680;49.936;11.344;2023-01-06T06:29:20;10.52;;;6.43;;
25854;SDS011;13680;49.936;11.344;2023-01-06T06:31:46;9.45;;;5.97;;
25854;SDS011;13680;49.936;11.344;2023-01-06T06:34:11;10.73;;;5.97;;
25854;SDS011;13680;49.936;11.344;2023-01-06T06:36:37;7.88;;;5.97;;
25854;SDS011;13680;49.936;11.344;2023-01-06T06:39:03;7.45;;;4.85;;
25854;SDS011;13680;49.936;11.344;2023-01-06T06:41:28;8.65;;;5.72;;
25854;SDS011;13680;49.936;11.344;2023-01-06T06:43:54;7.68;;;4.60;;
25854;SDS011;13680;49.936;11.344;2023-01-06T06:46:19;7.30;;;5.72;;
25854;SDS011;13680;49.936;11.344;2023-01-06T06:48:45;9.85;;;5.80;;
25854;SDS011;13680;49.936;11.344;2023-01-06T06:51:12;10.88;;;5.35;;
25854;SDS011;13680;49.936;11.344;2023-01-06T06:53:40;6.85;;;5.32;;
25854;SDS011;13680;49.936;11.344;2023-01-06T06:56:06;11.70;;;5.20;;
25854;SDS011;13680;49.936;11.344;2023-01-06T06:58:33;9.23;;;5.47;;
25854;SDS011;13680;49.936;11.344;2023-01-06T07:01:03;7.65;;;5.38;;
25854;SDS011;13680;49.936;11.344;2023-01-06T07:03:29;8.95;;;5.47;;
25854;SDS011;13680;49.936;11.344;2023-01-06T07:05:54;6.35;;;4.78;;
25854;SDS011;13680;49.936;11.344;2023-01-06T07:08:20;6.20;;;4.75;;
25854;SDS011;13680;49.936;11.344;2023-01-06T07:10:45;7.43;;;5.28;;
25854;SDS011;13680;49.936;11.344;2023-01-06T07:13:10;5.75;;;4.53;;
25854;SDS011;13680;49.936;11.344;2023-01-06T07:15:36;6.82;;;4.28;;
25854;SDS011;13680;49.936;11.344;2023-01-06T07:18:02;5.05;;;4.40;;
25854;SDS011;13680;49.936;11.344;2023-01-06T07:20:28;4.50;;;4.05;;
25854;SDS011;13680;49.936;11.344;2023-01-06T07:22:55;4.97;;;3.60;;
25854;SDS011;13680;49.936;11.344;2023-01-06T07:25:20;4.63;;;3.53;;
25854;SDS011;13680;49.936;11.344;2023-01-06T07:27:46;3.95;;;3.30;;
25854;SDS011;13680;49.936;11.344;2023-01-06T07:30:11;6.03;;;4.60;;
25854;SDS011;13680;49.936;11.344;2023-01-06T07:32:37;5.65;;;4.68;;
25854;SDS011;13680;49.936;11.344;2023-01-06T07:35:02;5.93;;;4.18;;
25854;SDS011;13680;49.936;11.344;2023-01-06T07:37:28;4.38;;;3.80;;
25854;SDS011;13680;49.936;11.344;2023-01-06T07:39:53;4.28;;;3.80;;
25854;SDS011;13680;49.936;11.344;2023-01-06T07:42:18;4.05;;;3.47;;
25854;SDS011;13680;49.936;11.344;2023-01-06T07:44:43;5.00;;;3.65;;
25854;SDS011;13680;49.936;11.344;2023-01-06T07:47:09;5.35;;;3.42;;
25854;SDS011;13680;49.936;11.344;2023-01-06T07:49:34;4.10;;;3.70;;
25854;SDS011;13680;49.936;11.344;2023-01-06T07:52:00;7.03;;;3.85;;
25854;SDS011;13680;49.936;11.344;2023-01-06T07:54:25;7.10;;;4.20;;
25854;SDS011;13680;49.936;11.344;2023-01-06T07:56:50;5.57;;;3.90;;
25854;SDS011;13680;49.936;11.344;2023-01-06T07:59:16;4.88;;;4.38;;
25854;SDS011;13680;49.936;11.344;2023-01-06T08:01:41;5.03;;;4.00;;
25854;SDS011;13680;49.936;11.344;2023-01-06T08:04:06;4.93;;;4.20;;
25854;SDS011;13680;49.936;11.344;2023-01-06T08:06:32;17.10;;;10.30;;
25854;SDS011;13680;49.936;11.344;2023-01-06T08:08:57;16.83;;;10.40;;
25854;SDS011;13680;49.936;11.344;2023-01-06T08:11:22;6.10;;;4.38;;
25854;SDS011;13680;49.936;11.344;2023-01-06T08:13:48;6.03;;;3.88;;
25854;SDS011;13680;49.936;11.344;2023-01-06T08:16:13;4.38;;;3.67;;
25854;SDS011;13680;49.936;11.344;2023-01-06T08:18:38;4.22;;;3.30;;
25854;SDS011;13680;49.936;11.344;2023-01-06T08:21:05;3.80;;;3.38;;
25854;SDS011;13680;49.936;11.344;2023-01-06T08:23:32;3.33;;;2.70;;
25854;SDS011;13680;49.936;11.344;2023-01-06T08:26:05;3.75;;;2.90;;
25854;SDS011;13680;49.936;11.344;2023-01-06T08:28:32;3.47;;;2.92;;
25854;SDS011;13680;49.936;11.344;2023-01-06T08:30:58;3.88;;;3.38;;
25854;SDS011;13680;49.936;11.344;2023-01-06T08:33:24;3.90;;;3.47;;
25854;SDS011;13680;49.936;11.344;2023-01-06T08:35:59;6.35;;;3.58;;
25854;SDS011;13680;49.936;11.344;2023-01-06T08:38:25;6.60;;;3.50;;
25854;SDS011;13680;49.936;11.344;2023-01-06T08:40:51;10.85;;;7.43;;
25854;SDS011;13680;49.936;11.344;2023-01-06T08:43:17;3.97;;;3.58;;
25854;SDS011;13680;49.936;11.344;2023-01-06T08:45:43;3.65;;;2.47;;
25854;SDS011;13680;49.936;11.344;2023-01-06T08:48:08;6.75;;;2.88;;
25854;SDS011;13680;49.936;11.344;2023-01-06T08:50:33;5.88;;;3.35;;
25854;SDS011;13680;49.936;11.344;2023-01-06T08:52:59;2.88;;;2.50;;
25854;SDS011;13680;49.936;11.344;2023-01-06T08:55:25;2.85;;;2.55;;
25854;SDS011;13680;49.936;11.344;2023-01-06T08:57:50;4.18;;;2.90;;
25854;SDS011;13680;49.936;11.344;2023-01-06T09:00:16;3.80;;;3.17;;
25854;SDS011;13680;49.936;11.344;2023-01-06T09:02:41;3.33;;;2.60;;
25854;SDS011;13680;49.936;11.344;2023-01-06T09:05:07;3.00;;;2.40;;
25854;SDS011;13680;49.936;11.344;2023-01-06T09:07:32;2.67;;;2.38;;
25854;SDS011;13680;49.936;11.344;2023-01-06T09:09:58;5.20;;;3.08;;
25854;SDS011;13680;49.936;11.344;2023-01-06T09:12:23;4.18;;;3.22;;
25854;SDS011;13680;49.936;11.344;2023-01-06T09:14:48;3.28;;;2.75;;
25854;SDS011;13680;49.936;11.344;2023-01-06T09:17:14;6.22;;;2.95;;
25854;SDS011;13680;49.936;11.344;2023-01-06T09:19:39;4.90;;;2.20;;
25854;SDS011;13680;49.936;11.344;2023-01-06T09:22:05;2.63;;;2.22;;
25854;SDS011;13680;49.936;11.344;2023-01-06T09:24:31;2.13;;;1.80;;
25854;SDS011;13680;49.936;11.344;2023-01-06T09:26:56;2.00;;;1.80;;
25854;SDS011;13680;49.936;11.344;2023-01-06T09:29:22;2.03;;;1.38;;
25854;SDS011;13680;49.936;11.344;2023-01-06T09:31:47;1.90;;;1.58;;
25854;SDS011;13680;49.936;11.344;2023-01-06T09:34:13;2.25;;;1.55;;
25854;SDS011;13680;49.936;11.344;2023-01-06T09:36:39;1.83;;;1.52;;
25854;SDS011;13680;49.936;11.344;2023-01-06T09:39:04;1.33;;;1.23;;
25854;SDS011;13680;49.936;11.344;2023-01-06T09:44:09;14.23;;;2.00;;
25854;SDS011;13680;49.936;11.344;2023-01-06T09:46:39;5.78;;;1.40;;
25854;SDS011;13680;49.936;11.344;2023-01-06T09:49:19;3.30;;;1.40;;
25854;SDS011;13680;49.936;11.344;2023-01-06T09:51:55;1.40;;;1.30;;
25854;SDS011;13680;49.936;11.344;2023-01-06T09:54:28;2.75;;;1.52;;
25854;SDS011;13680;49.936;11.344;2023-01-06T09:57:15;1.27;;;1.10;;
25854;SDS011;13680;49.936;11.344;2023-01-06T09:59:47;2.72;;;1.15;;
25854;SDS011;13680;49.936;11.344;2023-01-06T10:02:18;1.38;;;1.27;;
25854;SDS011;13680;49.936;11.344;2023-01-06T10:04:48;2.22;;;1.63;;
25854;SDS011;13680;49.936;11.344;2023-01-06T10:07:19;1.75;;;1.60;;
25854;SDS011;13680;49.936;11.344;2023-01-06T10:10:32;1.50;;;1.40;;
25854;SDS011;13680;49.936;11.344;2023-01-06T10:13:36;2.00;;;1.70;;
25854;SDS011;13680;49.936;11.344;2023-01-06T10:16:06;1.35;;;1.25;;
25854;SDS011;13680;49.936;11.344;2023-01-06T10:18:50;4.30;;;1.70;;
25854;SDS011;13680;49.936;11.344;2023-01-06T10:26:55;1.73;;;1.60;;
25854;SDS011;13680;49.936;11.344;2023-01-06T10:29:23;3.00;;;1.77;;
25854;SDS011;13680;49.936;11.344;2023-01-06T10:31:56;2.47;;;1.60;;
25854;SDS011;13680;49.936;11.344;2023-01-06T10:34:25;2.38;;;1.63;;
25854;SDS011;13680;49.936;11.344;2023-01-06T10:39:58;1.67;;;1.58;;
25854;SDS011;13680;49.936;11.344;2023-01-06T10:42:49;3.83;;;1.50;;
25854;SDS011;13680;49.936;11.344;2023-01-06T10:47:50;1.48;;;1.38;;
25854;SDS011;13680;49.936;11.344;2023-01-06T10:50:17;2.25;;;1.50;;
25854;SDS011;13680;49.936;11.344;2023-01-06T10:52:44;3.63;;;1.40;;
25854;SDS011;13680;49.936;11.344;2023-01-06T10:57:48;2.05;;;1.40;;
25854;SDS011;13680;49.936;11.344;2023-01-06T11:00:17;2.85;;;1.50;;
25854;SDS011;13680;49.936;11.344;2023-01-06T11:02:49;2.92;;;1.50;;
25854;SDS011;13680;49.936;11.344;2023-01-06T11:05:18;1.13;;;0.98;;
25854;SDS011;13680;49.936;11.344;2023-01-06T11:07:50;1.20;;;1.00;;
25854;SDS011;13680;49.936;11.344;2023-01-06T11:10:25;0.70;;;0.70;;
25854;SDS011;13680;49.936;11.344;2023-01-06T11:13:01;1.50;;;1.00;;
25854;SDS011;13680;49.936;11.344;2023-01-06T11:15:33;0.85;;;0.80;;
25854;SDS011;13680;49.936;11.344;2023-01-06T11:18:02;1.92;;;1.00;;
25854;SDS011;13680;49.936;11.344;2023-01-06T11:20:31;2.13;;;1.02;;
25854;SDS011;13680;49.936;11.344;2023-01-06T11:23:11;1.17;;;1.08;;
25854;SDS011;13680;49.936;11.344;2023-01-06T11:25:58;1.83;;;1.30;;
25854;SDS011;13680;49.936;11.344;2023-01-06T11:28:26;1.20;;;1.10;;
25854;SDS011;13680;49.936;11.344;2023-01-06T11:30:57;1.30;;;1.15;;
25854;SDS011;13680;49.936;11.344;2023-01-06T11:33:26;2.05;;;1.13;;
25854;SDS011;13680;49.936;11.344;2023-01-06T11:35:52;1.92;;;1.20;;
25854;SDS011;13680;49.936;11.344;2023-01-06T11:38:19;2.00;;;1.30;;
25854;SDS011;13680;49.936;11.344;2023-01-06T11:40:46;1.50;;;1.40;;
25854;SDS011;13680;49.936;11.344;2023-01-06T11:43:14;3.00;;;1.70;;
25854;SDS011;13680;49.936;11.344;2023-01-06T11:46:02;2.03;;;1.20;;
25854;SDS011;13680;49.936;11.344;2023-01-06T11:48:39;1.88;;;0.90;;
25854;SDS011;13680;49.936;11.344;2023-01-06T11:51:12;0.80;;;0.80;;
25854;SDS011;13680;49.936;11.344;2023-01-06T11:53:38;0.82;;;0.70;;
25854;SDS011;13680;49.936;11.344;2023-01-06T11:56:18;1.05;;;0.80;;
25854;SDS011;13680;49.936;11.344;2023-01-06T11:58:47;1.23;;;0.90;;
25854;SDS011;13680;49.936;11.344;2023-01-06T12:01:28;1.52;;;0.90;;
25854;SDS011;13680;49.936;11.344;2023-01-06T12:04:14;0.65;;;0.60;;
25854;SDS011;13680;49.936;11.344;2023-01-06T12:06:47;0.82;;;0.65;;
25854;SDS011;13680;49.936;11.344;2023-01-06T12:09:16;2.50;;;0.90;;
25854;SDS011;13680;49.936;11.344;2023-01-06T12:14:15;4.28;;;1.20;;
25854;SDS011;13680;49.936;11.344;2023-01-06T12:19:44;1.77;;;1.40;;
25854;SDS011;13680;49.936;11.344;2023-01-06T12:24:55;3.13;;;1.45;;
25854;SDS011;13680;49.936;11.344;2023-01-06T12:27:26;3.92;;;1.73;;
25854;SDS011;13680;49.936;11.344;2023-01-06T12:29:57;2.78;;;1.58;;
25854;SDS011;13680;49.936;11.344;2023-01-06T12:32:25;2.90;;;1.83;;
25854;SDS011;13680;49.936;11.344;2023-01-06T12:34:59;3.40;;;1.75;;
25854;SDS011;13680;49.936;11.344;2023-01-06T12:37:31;2.33;;;1.52;;
25854;SDS011;13680;49.936;11.344;2023-01-06T12:42:50;4.05;;;1.70;;
25854;SDS011;13680;49.936;11.344;2023-01-06T12:45:27;1.50;;;1.20;;
25854;SDS011;13680;49.936;11.344;2023-01-06T12:48:02;2.75;;;1.60;;
25854;SDS011;13680;49.936;11.344;2023-01-06T12:50:53;2.50;;;1.58;;
25854;SDS011;13680;49.936;11.344;2023-01-06T12:53:29;2.78;;;1.30;;
25854;SDS011;13680;49.936;11.344;2023-01-06T13:01:30;1.98;;;1.40;;
25854;SDS011;13680;49.936;11.344;2023-01-06T13:10:00;1.38;;;0.98;;
25854;SDS011;13680;49.936;11.344;2023-01-06T13:15:18;3.42;;;2.28;;
25854;SDS011;13680;49.936;11.344;2023-01-06T13:20:27;6.72;;;1.75;;
25854;SDS011;13680;49.936;11.344;2023-01-06T13:23:23;3.15;;;2.17;;
25854;SDS011;13680;49.936;11.344;2023-01-06T13:25:56;3.40;;;1.27;;
25854;SDS011;13680;49.936;11.344;2023-01-06T13:40:09;2.92;;;1.48;;
25854;SDS011;13680;49.936;11.344;2023-01-06T13:42:52;4.93;;;1.70;;
25854;SDS011;13680;49.936;11.344;2023-01-06T13:45:26;12.00;;;4.80;;
25854;SDS011;13680;49.936;11.344;2023-01-06T13:47:54;2.92;;;1.27;;
25854;SDS011;13680;49.936;11.344;2023-01-06T13:50:22;3.75;;;1.85;;
25854;SDS011;13680;49.936;11.344;2023-01-06T13:52:48;2.15;;;1.50;;
25854;SDS011;13680;49.936;11.344;2023-01-06T13:57:43;1.73;;;1.48;;
25854;SDS011;13680;49.936;11.344;2023-01-06T14:05:46;2.40;;;1.52;;
25854;SDS011;13680;49.936;11.344;2023-01-06T14:07:58;2.20;;;1.45;;
25854;SDS011;13680;49.936;11.344;2023-01-06T14:12:56;1.88;;;1.40;;
25854;SDS011;13680;49.936;11.344;2023-01-06T14:15:27;3.05;;;1.58;;
25854;SDS011;13680;49.936;11.344;2023-01-06T14:17:55;3.50;;;1.73;;
25854;SDS011;13680;49.936;11.344;2023-01-06T14:20:31;1.52;;;1.33;;
25854;SDS011;13680;49.936;11.344;2023-01-06T14:23:01;3.58;;;1.95;;
25854;SDS011;13680;49.936;11.344;2023-01-06T14:25:28;1.98;;;1.50;;
25854;SDS011;13680;49.936;11.344;2023-01-06T14:30:24;1.83;;;1.40;;
25854;SDS011;13680;49.936;11.344;2023-01-06T14:35:17;1.50;;;1.40;;
25854;SDS011;13680;49.936;11.344;2023-01-06T14:40:18;5.63;;;1.60;;
25854;SDS011;13680;49.936;11.344;2023-01-06T14:42:46;2.17;;;1.50;;
25854;SDS011;13680;49.936;11.344;2023-01-06T14:45:23;2.15;;;1.50;;
25854;SDS011;13680;49.936;11.344;2023-01-06T14:47:51;4.78;;;1.38;;
25854;SDS011;13680;49.936;11.344;2023-01-06T14:50:30;3.85;;;1.60;;
25854;SDS011;13680;49.936;11.344;2023-01-06T14:53:04;3.67;;;1.65;;
25854;SDS011;13680;49.936;11.344;2023-01-06T14:55:34;4.28;;;1.95;;
25854;SDS011;13680;49.936;11.344;2023-01-06T14:58:04;1.98;;;1.60;;
25854;SDS011;13680;49.936;11.344;2023-01-06T15:00:30;5.10;;;1.70;;
25854;SDS011;13680;49.936;11.344;2023-01-06T15:03:30;9.30;;;1.67;;
25854;SDS011;13680;49.936;11.344;2023-01-06T15:05:50;1.98;;;1.55;;
25854;SDS011;13680;49.936;11.344;2023-01-06T15:08:33;7.38;;;4.35;;
25854;SDS011;13680;49.936;11.344;2023-01-06T15:10:59;3.00;;;2.15;;
25854;SDS011;13680;49.936;11.344;2023-01-06T15:13:37;2.75;;;1.90;;
25854;SDS011;13680;49.936;11.344;2023-01-06T15:16:07;4.57;;;2.00;;
25854;SDS011;13680;49.936;11.344;2023-01-06T15:18:42;4.50;;;2.30;;
25854;SDS011;13680;49.936;11.344;2023-01-06T15:21:09;5.78;;;2.40;;
25854;SDS011;13680;49.936;11.344;2023-01-06T15:23:36;6.07;;;2.97;;
25854;SDS011;13680;49.936;11.344;2023-01-06T15:26:13;5.15;;;2.45;;
25854;SDS011;13680;49.936;11.344;2023-01-06T15:28:41;4.20;;;2.25;;
25854;SDS011;13680;49.936;11.344;2023-01-06T15:31:14;5.07;;;2.50;;
25854;SDS011;13680;49.936;11.344;2023-01-06T15:33:42;6.55;;;3.00;;
25854;SDS011;13680;49.936;11.344;2023-01-06T15:36:09;8.30;;;2.80;;
25854;SDS011;13680;49.936;11.344;2023-01-06T15:38:43;8.87;;;2.93;;
25854;SDS011;13680;49.936;11.344;2023-01-06T15:41:10;4.60;;;2.75;;
25854;SDS011;13680;49.936;11.344;2023-01-06T15:43:56;3.70;;;2.15;;
25854;SDS011;13680;49.936;11.344;2023-01-06T15:46:22;3.25;;;1.92;;
25854;SDS011;13680;49.936;11.344;2023-01-06T15:48:48;4.35;;;2.60;;
25854;SDS011;13680;49.936;11.344;2023-01-06T15:51:16;3.35;;;2.60;;
25854;SDS011;13680;49.936;11.344;2023-01-06T15:53:44;4.32;;;1.88;;
25854;SDS011;13680;49.936;11.344;2023-01-06T15:56:17;4.93;;;2.70;;
25854;SDS011;13680;49.936;11.344;2023-01-06T15:58:47;8.18;;;2.75;;
25854;SDS011;13680;49.936;11.344;2023-01-06T16:01:14;7.70;;;2.58;;
25854;SDS011;13680;49.936;11.344;2023-01-06T16:03:46;2.53;;;2.03;;
25854;SDS011;13680;49.936;11.344;2023-01-06T16:06:23;4.55;;;2.40;;
25854;SDS011;13680;49.936;11.344;2023-01-06T16:13:41;4.43;;;2.08;;
25854;SDS011;13680;49.936;11.344;2023-01-06T16:18:38;7.43;;;3.15;;
25854;SDS011;13680;49.936;11.344;2023-01-06T16:21:15;4.20;;;2.60;;
25854;SDS011;13680;49.936;11.344;2023-01-06T16:23:50;5.72;;;3.10;;
25854;SDS011;13680;49.936;11.344;2023-01-06T16:26:19;6.40;;;2.83;;
25854;SDS011;13680;49.936;11.344;2023-01-06T16:28:50;2.83;;;2.50;;
25854;SDS011;13680;49.936;11.344;2023-01-06T16:31:27;3.30;;;2.15;;
25854;SDS011;13680;49.936;11.344;2023-01-06T16:34:21;12.77;;;10.02;;
25854;SDS011;13680;49.936;11.344;2023-01-06T16:36:52;4.85;;;2.70;;
25854;SDS011;13680;49.936;11.344;2023-01-06T16:39:18;4.57;;;3.28;;
25854;SDS011;13680;49.936;11.344;2023-01-06T16:42:05;4.75;;;2.92;;